Bradner, Ohio
Current Conditions -  °F | °C
As of 5:53 PM on Friday 28 Nov 2014 (Local Time) from KTDZ Reporting Station
Broken Clouds Broken Clouds  
Wind Chill: 19°   Ceiling: 9500
Heat Index: 28°   Visibility: 9mi
Dew Point: 21°   Wind: 9mph
Humidity: 75%   Direction: 150°SSE
Pressure: 30.18"   Gusts: NA
Location:  41.32°N, 83.44°W
Report Text: KTDZ 282253Z AUTO 15008KT 9SM FEW060 SCT070 BKN095 M02/M06 A3018 RMK AO2 SNB42E52 SLP228 P0000 T10221061 TSNO
Loading
Personal Weather Stations






























Interactive Weather Map New forecast layout! Learn more

10-Day Weather Forecast

Advertisements
Track Severe Weather on mobile